Terminal Aerodrome Forecast
Issued by NWS Chicago, IL

Home | Current Version | Previous Version | Graphics & Text | Print | Product List | Glossary On
Versions: 1 2 3 4 5 6 7 8 9 10 11 12 13 14 15 16 17 18 19 20 21 22 23 24 25 26 27
139
FTUS43 KLOT 201500 AAA
TAFRFD
TAF AMD
KRFD 201500Z 2015/2112 27012G18KT P6SM SCT050 BKN080
      TEMPO 2016/2020 01020G30KT 5SM TSRA BKN050CB
     FM202000 14012KT 6SM -SHRA VCTS SCT050CB BKN080
     FM202200 04006KT P6SM SCT080=

USA.gov is the U.S. government's official web portal to all federal, state and local government web resources and services.